createdAt,value
2017-05-10T00:00:17.071Z,0
2017-05-10T00:00:57.956Z,0
2017-05-10T00:01:38.843Z,0
2017-05-10T00:02:19.721Z,0
2017-05-10T00:03:00.600Z,0
2017-05-10T00:03:41.493Z,0
2017-05-10T00:04:22.371Z,0
2017-05-10T00:05:03.261Z,0
2017-05-10T00:05:44.137Z,0
2017-05-10T00:06:25.020Z,0
2017-05-10T00:07:05.928Z,0
2017-05-10T00:07:46.814Z,0
2017-05-10T00:08:27.706Z,0
2017-05-10T00:09:08.588Z,0
2017-05-10T00:09:49.494Z,0
2017-05-10T00:10:30.740Z,0
2017-05-10T00:11:11.631Z,0
2017-05-10T00:11:52.544Z,0
2017-05-10T00:12:33.432Z,0
2017-05-10T00:13:14.320Z,0
2017-05-10T00:13:55.202Z,0
2017-05-10T00:14:36.103Z,0
2017-05-10T00:15:16.967Z,0
2017-05-10T00:15:57.849Z,0
2017-05-10T00:16:38.735Z,0
2017-05-10T00:17:19.662Z,0
2017-05-10T00:18:00.509Z,0
2017-05-10T00:18:41.393Z,0
2017-05-10T00:19:22.276Z,0
2017-05-10T00:20:03.165Z,0
2017-05-10T00:20:44.040Z,0
2017-05-10T00:21:24.927Z,0
2017-05-10T00:22:05.802Z,0
2017-05-10T00:22:46.690Z,0
2017-05-10T00:23:27.576Z,0
2017-05-10T00:24:08.482Z,0
2017-05-10T00:24:49.343Z,0
2017-05-10T00:25:30.219Z,0
2017-05-10T00:26:11.101Z,0
2017-05-10T00:26:51.990Z,0
2017-05-10T00:27:32.878Z,0
2017-05-10T00:28:13.749Z,0
2017-05-10T00:28:54.643Z,0
2017-05-10T00:29:35.520Z,0
2017-05-10T00:30:16.403Z,0
2017-05-10T00:30:57.283Z,0
2017-05-10T00:31:38.205Z,0
2017-05-10T00:32:19.082Z,0
2017-05-10T00:32:59.958Z,0
2017-05-10T00:33:40.826Z,0
2017-05-10T00:34:21.732Z,0
2017-05-10T00:35:02.661Z,0
2017-05-10T00:35:43.546Z,0
2017-05-10T00:36:24.430Z,0
2017-05-10T00:37:05.312Z,0
2017-05-10T00:37:46.192Z,0
2017-05-10T00:38:27.078Z,0
2017-05-10T00:39:07.985Z,0
2017-05-10T00:39:48.870Z,0
2017-05-10T00:40:29.754Z,0
2017-05-10T00:41:10.722Z,0
2017-05-10T00:41:51.599Z,0
2017-05-10T00:42:32.510Z,0
2017-05-10T00:43:13.369Z,0
2017-05-10T00:43:54.251Z,0
2017-05-10T00:44:35.132Z,0
2017-05-10T00:45:16.014Z,0
2017-05-10T00:45:56.895Z,0
2017-05-10T00:46:37.782Z,0
2017-05-10T00:47:18.664Z,0
2017-05-10T00:47:59.545Z,0
2017-05-10T00:48:40.430Z,0
2017-05-10T00:49:21.317Z,0
2017-05-10T00:50:02.198Z,0
2017-05-10T00:50:43.083Z,0
2017-05-10T00:51:23.969Z,0
2017-05-10T00:52:04.855Z,0
2017-05-10T00:52:45.756Z,0
2017-05-10T00:53:26.618Z,0
2017-05-10T00:54:07.509Z,0
2017-05-10T00:54:48.393Z,0
2017-05-10T00:55:29.272Z,0
2017-05-10T00:56:10.171Z,0
2017-05-10T00:56:51.070Z,0
2017-05-10T00:57:31.946Z,0
2017-05-10T00:58:12.820Z,0
2017-05-10T00:58:53.710Z,0
2017-05-10T00:59:34.595Z,0
2017-05-10T01:00:15.490Z,0
2017-05-10T01:00:56.366Z,0
2017-05-10T01:01:37.240Z,0
2017-05-10T01:02:18.122Z,0
2017-05-10T01:02:59.013Z,0
2017-05-10T01:03:39.891Z,0
2017-05-10T01:04:20.767Z,0
2017-05-10T01:05:01.631Z,0
2017-05-10T01:05:42.521Z,0
2017-05-10T01:06:23.404Z,0
2017-05-10T01:07:04.298Z,0
2017-05-10T01:07:45.167Z,0
2017-05-10T01:08:26.048Z,0
2017-05-10T01:09:06.910Z,0
2017-05-10T01:09:47.816Z,0
2017-05-10T01:10:28.687Z,0
2017-05-10T01:11:09.564Z,0
2017-05-10T01:11:50.468Z,0
2017-05-10T01:12:31.338Z,0
2017-05-10T01:13:12.217Z,0
2017-05-10T01:13:53.086Z,0
2017-05-10T01:14:33.953Z,0
2017-05-10T01:15:14.828Z,0
2017-05-10T01:15:55.713Z,0
2017-05-10T01:16:36.606Z,0
2017-05-10T01:17:17.468Z,0
2017-05-10T01:17:58.348Z,0
2017-05-10T01:18:39.226Z,0
2017-05-10T01:19:20.125Z,0
2017-05-10T01:20:00.990Z,0
2017-05-10T01:20:41.868Z,0
2017-05-10T01:21:22.735Z,0
2017-05-10T01:22:03.621Z,0
2017-05-10T01:22:44.506Z,0
2017-05-10T01:23:25.378Z,0
2017-05-10T01:24:06.251Z,0
2017-05-10T01:24:47.125Z,0
2017-05-10T01:25:28.006Z,0
2017-05-10T01:26:08.895Z,0
2017-05-10T01:26:49.775Z,0
2017-05-10T01:27:30.657Z,0
2017-05-10T01:28:11.545Z,0
2017-05-10T01:28:52.440Z,0
2017-05-10T01:29:33.317Z,0
2017-05-10T01:30:14.189Z,0
2017-05-10T01:30:55.084Z,0
2017-05-10T01:31:35.973Z,0
2017-05-10T01:32:16.851Z,0
2017-05-10T01:32:57.725Z,0
2017-05-10T01:33:38.590Z,0
2017-05-10T01:34:19.464Z,0
2017-05-10T01:35:00.346Z,0
2017-05-10T01:35:41.232Z,0
2017-05-10T01:36:22.097Z,0
2017-05-10T01:37:02.968Z,0
2017-05-10T01:37:43.850Z,0
2017-05-10T01:38:24.736Z,0
2017-05-10T01:39:05.620Z,0
2017-05-10T01:39:46.504Z,0
2017-05-10T01:40:27.429Z,0
2017-05-10T01:41:08.305Z,0
2017-05-10T01:41:49.187Z,0
2017-05-10T01:42:30.074Z,0
2017-05-10T01:43:10.975Z,0
2017-05-10T01:43:51.845Z,0
2017-05-10T01:44:32.735Z,0
2017-05-10T01:45:13.637Z,0
2017-05-10T01:45:54.515Z,0
2017-05-10T01:46:35.413Z,0
2017-05-10T01:47:16.312Z,0
2017-05-10T01:47:57.196Z,0
2017-05-10T01:48:38.099Z,0
2017-05-10T01:49:18.972Z,0
2017-05-10T01:49:59.859Z,0
2017-05-10T01:50:40.757Z,0
2017-05-10T01:51:21.636Z,0
2017-05-10T01:52:02.552Z,0
2017-05-10T01:52:43.440Z,0
2017-05-10T01:53:24.344Z,0
2017-05-10T01:54:05.223Z,0
2017-05-10T01:54:46.123Z,0
2017-05-10T01:55:27.021Z,0
2017-05-10T01:56:07.895Z,0
2017-05-10T01:56:48.790Z,0
2017-05-10T01:57:29.674Z,0
2017-05-10T01:58:10.555Z,0
2017-05-10T01:58:51.430Z,0
2017-05-10T01:59:32.301Z,0
2017-05-10T02:00:13.186Z,0
2017-05-10T02:00:54.081Z,0
2017-05-10T02:01:34.996Z,0
2017-05-10T02:02:15.883Z,0
2017-05-10T02:02:56.770Z,0
2017-05-10T02:03:37.650Z,0
2017-05-10T02:04:18.531Z,0
2017-05-10T02:04:59.417Z,0
2017-05-10T02:05:40.363Z,0
2017-05-10T02:06:21.258Z,0
2017-05-10T02:07:02.128Z,0
2017-05-10T02:07:43.005Z,0
2017-05-10T02:08:23.890Z,0
2017-05-10T02:09:04.784Z,0
2017-05-10T02:09:45.673Z,0
2017-05-10T02:10:26.552Z,0
2017-05-10T02:11:07.466Z,0
2017-05-10T02:11:48.341Z,0
2017-05-10T02:12:29.217Z,0
2017-05-10T02:13:10.099Z,0
2017-05-10T02:13:50.978Z,0
2017-05-10T02:14:31.864Z,0
2017-05-10T02:15:12.749Z,0
2017-05-10T02:15:53.637Z,0
2017-05-10T02:16:34.518Z,0
2017-05-10T02:17:15.400Z,0
2017-05-10T02:17:56.299Z,0
2017-05-10T02:18:37.215Z,0
2017-05-10T02:19:18.067Z,0
2017-05-10T02:19:58.952Z,0
2017-05-10T02:20:39.830Z,0
2017-05-10T02:21:20.707Z,0
2017-05-10T02:22:01.602Z,0
2017-05-10T02:22:42.476Z,0
2017-05-10T02:23:23.348Z,0
2017-05-10T02:24:04.244Z,0
2017-05-10T02:24:45.130Z,0
2017-05-10T02:25:26.010Z,0
2017-05-10T02:26:06.883Z,0
2017-05-10T02:26:47.770Z,0
2017-05-10T02:27:28.647Z,0
2017-05-10T02:28:09.529Z,0
2017-05-10T02:28:50.480Z,0
2017-05-10T02:29:31.353Z,0
2017-05-10T02:30:12.231Z,0
2017-05-10T02:30:53.115Z,0
2017-05-10T02:31:33.999Z,0
2017-05-10T02:32:14.897Z,0
2017-05-10T02:32:55.774Z,0
2017-05-10T02:33:36.653Z,0
2017-05-10T02:34:17.553Z,0
2017-05-10T02:34:58.438Z,0
2017-05-10T02:35:39.330Z,0
2017-05-10T02:36:20.219Z,0
2017-05-10T02:37:01.103Z,0
2017-05-10T02:37:41.974Z,0
2017-05-10T02:38:22.853Z,0
2017-05-10T02:39:03.740Z,0
2017-05-10T02:39:44.623Z,0
2017-05-10T02:40:25.501Z,0
2017-05-10T02:41:06.381Z,0
2017-05-10T02:41:47.274Z,0
2017-05-10T02:42:28.154Z,0
2017-05-10T02:43:09.034Z,0
2017-05-10T02:43:49.905Z,0
2017-05-10T02:44:30.783Z,0
2017-05-10T02:45:11.685Z,0
2017-05-10T02:45:52.557Z,0
2017-05-10T02:46:33.435Z,0
2017-05-10T02:47:14.312Z,0
2017-05-10T02:47:55.195Z,0
2017-05-10T02:48:36.081Z,0
2017-05-10T02:49:16.966Z,0
2017-05-10T02:49:57.860Z,0
2017-05-10T02:50:38.755Z,0
2017-05-10T02:51:19.628Z,0
2017-05-10T02:52:00.512Z,0
2017-05-10T02:52:41.430Z,0
2017-05-10T02:53:22.305Z,0
2017-05-10T02:54:03.196Z,0
2017-05-10T02:54:44.084Z,0
2017-05-10T02:55:24.970Z,0
2017-05-10T02:56:05.869Z,0
2017-05-10T02:56:46.778Z,0
2017-05-10T02:57:27.668Z,0
2017-05-10T02:58:08.554Z,0
2017-05-10T02:58:49.434Z,0
2017-05-10T02:59:30.316Z,0
2017-05-10T03:00:11.204Z,0
2017-05-10T03:00:52.089Z,0
2017-05-10T03:01:32.978Z,0
2017-05-10T03:02:13.859Z,0
2017-05-10T03:02:54.740Z,0
2017-05-10T03:03:35.619Z,0
2017-05-10T03:04:16.513Z,0
2017-05-10T03:04:57.393Z,0
2017-05-10T03:05:38.280Z,0
2017-05-10T03:06:19.157Z,0
2017-05-10T03:07:00.036Z,0
2017-05-10T03:07:40.922Z,0
2017-05-10T03:08:21.905Z,0
2017-05-10T03:09:02.785Z,0
2017-05-10T03:09:43.684Z,0
2017-05-10T03:10:24.577Z,0
2017-05-10T03:11:05.485Z,0
2017-05-10T03:11:46.364Z,0
2017-05-10T03:12:27.235Z,0
2017-05-10T03:13:08.122Z,0
2017-05-10T03:13:49.025Z,0
2017-05-10T03:14:29.902Z,0
2017-05-10T03:15:10.775Z,0
2017-05-10T03:15:51.655Z,0
2017-05-10T03:16:32.536Z,0
2017-05-10T03:17:13.433Z,0
2017-05-10T03:17:54.306Z,0
2017-05-10T03:18:35.208Z,0
2017-05-10T03:19:16.102Z,0
2017-05-10T03:19:56.983Z,0
2017-05-10T03:20:37.864Z,0
2017-05-10T03:21:18.745Z,0
2017-05-10T03:21:59.627Z,0
2017-05-10T03:22:40.503Z,0
2017-05-10T03:23:21.376Z,0
2017-05-10T03:24:02.258Z,5
2017-05-10T03:24:43.152Z,5
2017-05-10T03:25:24.033Z,5
2017-05-10T03:26:04.908Z,5
2017-05-10T03:26:45.790Z,5
2017-05-10T03:27:26.672Z,5
2017-05-10T03:28:07.564Z,5
2017-05-10T03:28:48.457Z,5
2017-05-10T03:29:29.341Z,5
2017-05-10T03:30:10.236Z,5
2017-05-10T03:30:51.109Z,5
2017-05-10T03:31:31.990Z,5
2017-05-10T03:32:12.884Z,5
2017-05-10T03:32:53.779Z,5
2017-05-10T03:33:34.649Z,5
2017-05-10T03:34:15.536Z,5
2017-05-10T03:34:56.417Z,5
2017-05-10T03:35:37.303Z,5
2017-05-10T03:36:18.187Z,5
2017-05-10T03:36:59.069Z,5
2017-05-10T03:37:39.953Z,5
2017-05-10T03:38:20.953Z,5
2017-05-10T03:39:01.832Z,5
2017-05-10T03:39:42.707Z,5
2017-05-10T03:40:23.597Z,10
2017-05-10T03:41:04.472Z,10
2017-05-10T03:41:45.354Z,10
2017-05-10T03:42:26.231Z,10
2017-05-10T03:43:07.098Z,10
2017-05-10T03:43:47.984Z,10
2017-05-10T03:44:28.853Z,10
2017-05-10T03:45:09.738Z,10
2017-05-10T03:45:50.609Z,10
2017-05-10T03:46:31.489Z,10
2017-05-10T03:47:12.372Z,10
2017-05-10T03:47:53.260Z,10
2017-05-10T03:48:34.136Z,10
2017-05-10T03:49:15.023Z,15
2017-05-10T03:49:55.909Z,15
2017-05-10T03:50:36.813Z,15
2017-05-10T03:51:17.698Z,15
2017-05-10T03:51:58.596Z,15
2017-05-10T03:52:39.476Z,15
2017-05-10T03:53:20.353Z,15
2017-05-10T03:54:01.229Z,20
2017-05-10T03:54:42.124Z,20
2017-05-10T03:55:23.030Z,20
2017-05-10T03:56:03.892Z,20
2017-05-10T03:56:44.771Z,20
2017-05-10T03:57:25.649Z,20
2017-05-10T03:58:06.607Z,20
2017-05-10T03:58:47.415Z,20
2017-05-10T03:59:28.297Z,20
2017-05-10T04:00:09.176Z,20
2017-05-10T04:00:50.065Z,25
2017-05-10T04:01:30.936Z,25
2017-05-10T04:02:11.802Z,25
2017-05-10T04:02:52.697Z,25
2017-05-10T04:03:33.567Z,25
2017-05-10T04:04:14.456Z,25
2017-05-10T04:04:55.338Z,25
2017-05-10T04:05:36.220Z,30
2017-05-10T04:06:17.110Z,30
2017-05-10T04:06:58.005Z,30
2017-05-10T04:07:38.895Z,30
2017-05-10T04:08:19.775Z,30
2017-05-10T04:09:00.672Z,25
2017-05-10T04:09:41.541Z,25
2017-05-10T04:10:22.421Z,25
2017-05-10T04:11:03.297Z,30
2017-05-10T04:11:44.175Z,30
2017-05-10T04:12:25.079Z,35
2017-05-10T04:13:05.959Z,35
2017-05-10T04:13:46.856Z,35
2017-05-10T04:14:27.738Z,35
2017-05-10T04:15:08.640Z,35
2017-05-10T04:15:49.526Z,35
2017-05-10T04:16:30.426Z,35
2017-05-10T04:17:11.286Z,35
2017-05-10T04:17:52.158Z,35
2017-05-10T04:18:33.038Z,35
2017-05-10T04:19:13.924Z,40
2017-05-10T04:19:54.817Z,40
2017-05-10T04:20:35.685Z,40
2017-05-10T04:21:16.564Z,45
2017-05-10T04:21:57.453Z,45
2017-05-10T04:22:38.340Z,45
2017-05-10T04:23:19.219Z,45
2017-05-10T04:24:00.126Z,45
2017-05-10T04:24:41.017Z,45
2017-05-10T04:25:21.898Z,50
2017-05-10T04:26:02.784Z,55
2017-05-10T04:26:43.683Z,55
2017-05-10T04:27:24.595Z,60
2017-05-10T04:28:05.482Z,60
2017-05-10T04:28:46.366Z,65
2017-05-10T04:29:27.250Z,65
2017-05-10T04:30:08.138Z,70
2017-05-10T04:30:49.029Z,70
2017-05-10T04:31:29.915Z,70
2017-05-10T04:32:10.800Z,70
2017-05-10T04:32:51.710Z,70
2017-05-10T04:33:32.570Z,70
2017-05-10T04:34:13.452Z,65
2017-05-10T04:34:54.337Z,65
2017-05-10T04:35:35.224Z,70
2017-05-10T04:36:16.103Z,70
2017-05-10T04:36:56.990Z,75
2017-05-10T04:37:37.907Z,75
2017-05-10T04:38:18.760Z,75
2017-05-10T04:38:59.639Z,80
2017-05-10T04:39:40.515Z,85
2017-05-10T04:40:21.401Z,90
2017-05-10T04:41:02.295Z,90
2017-05-10T04:41:43.173Z,90
2017-05-10T04:42:24.051Z,95
2017-05-10T04:43:04.924Z,95
2017-05-10T04:43:45.831Z,90
2017-05-10T04:44:26.707Z,90
2017-05-10T04:45:07.593Z,85
2017-05-10T04:45:48.456Z,85
2017-05-10T04:46:29.331Z,80
2017-05-10T04:47:10.252Z,75
2017-05-10T04:47:51.132Z,75
2017-05-10T04:48:32.003Z,75
2017-05-10T04:49:12.889Z,75
2017-05-10T04:49:53.779Z,70
2017-05-10T04:50:34.691Z,70
2017-05-10T04:51:15.593Z,65
2017-05-10T04:51:56.467Z,55
2017-05-10T04:52:37.334Z,45
2017-05-10T04:53:18.202Z,40
2017-05-10T04:53:59.076Z,45
2017-05-10T04:54:39.955Z,40
2017-05-10T04:55:20.838Z,40
2017-05-10T04:56:01.725Z,35
2017-05-10T04:56:42.586Z,40
2017-05-10T04:57:23.456Z,40
2017-05-10T04:58:04.347Z,30
2017-05-10T04:58:45.229Z,25
2017-05-10T04:59:26.104Z,25
2017-05-10T05:00:06.973Z,25
2017-05-10T05:00:47.857Z,30
2017-05-10T05:01:28.742Z,30
2017-05-10T05:02:09.624Z,35
2017-05-10T05:02:50.524Z,35
2017-05-10T05:03:31.420Z,35
2017-05-10T05:04:12.297Z,35
2017-05-10T05:04:53.177Z,40
2017-05-10T05:05:34.034Z,35
2017-05-10T05:06:14.939Z,35
2017-05-10T05:06:55.806Z,35
2017-05-10T05:07:36.683Z,40
2017-05-10T05:08:17.563Z,45
2017-05-10T05:08:58.427Z,40
2017-05-10T05:09:39.309Z,45
2017-05-10T05:10:20.202Z,45
2017-05-10T05:11:01.096Z,45
2017-05-10T05:11:41.968Z,50
2017-05-10T05:12:22.840Z,50
2017-05-10T05:13:03.726Z,55
2017-05-10T05:13:44.620Z,50
2017-05-10T05:14:25.506Z,45
2017-05-10T05:15:06.438Z,45
2017-05-10T05:15:47.397Z,45
2017-05-10T05:16:28.277Z,50
2017-05-10T05:17:09.162Z,60
2017-05-10T05:17:50.028Z,65
2017-05-10T05:18:30.905Z,75
2017-05-10T05:19:11.794Z,100
2017-05-10T05:19:52.703Z,115
2017-05-10T05:20:33.640Z,125
2017-05-10T05:21:14.475Z,135
2017-05-10T05:21:55.334Z,145
2017-05-10T05:22:36.209Z,155
2017-05-10T05:23:17.103Z,165
2017-05-10T05:23:57.990Z,170
2017-05-10T05:24:38.871Z,175
2017-05-10T05:25:19.735Z,170
2017-05-10T05:26:00.613Z,170
2017-05-10T05:26:41.491Z,170
2017-05-10T05:27:22.407Z,175
2017-05-10T05:28:03.279Z,175
2017-05-10T05:28:44.217Z,175
2017-05-10T05:29:25.064Z,180
2017-05-10T05:30:05.940Z,180
2017-05-10T05:30:46.815Z,175
2017-05-10T05:31:27.710Z,175
2017-05-10T05:32:08.598Z,175
2017-05-10T05:32:49.472Z,170
2017-05-10T05:33:30.328Z,165
2017-05-10T05:34:11.205Z,165
2017-05-10T05:34:52.098Z,165
2017-05-10T05:35:32.987Z,165
2017-05-10T05:36:13.878Z,160
2017-05-10T05:36:54.767Z,160
2017-05-10T05:37:35.671Z,155
2017-05-10T05:38:16.555Z,155
2017-05-10T05:38:57.426Z,155
2017-05-10T05:39:38.312Z,155
2017-05-10T05:40:19.853Z,155
2017-05-10T05:41:00.734Z,160
2017-05-10T05:41:41.623Z,160
2017-05-10T05:42:22.503Z,165
2017-05-10T05:43:03.372Z,165
2017-05-10T05:43:44.248Z,170
2017-05-10T05:44:25.151Z,170
2017-05-10T05:45:06.030Z,175
2017-05-10T05:45:46.902Z,175
2017-05-10T05:46:27.772Z,180
2017-05-10T05:47:08.660Z,185
2017-05-10T05:47:49.705Z,190
2017-05-10T05:49:43.564Z,210
2017-05-10T05:50:24.452Z,215
2017-05-10T05:51:05.335Z,225
2017-05-10T05:51:46.212Z,230
2017-05-10T05:52:27.075Z,240
2017-05-10T05:53:07.956Z,240
2017-05-10T05:53:48.839Z,240
2017-05-10T05:54:29.726Z,240
2017-05-10T05:55:10.623Z,245
2017-05-10T05:55:51.513Z,245
2017-05-10T05:56:35.030Z,245
2017-05-10T05:57:15.916Z,250
2017-05-10T05:57:56.801Z,260
2017-05-10T05:58:37.684Z,260
2017-05-10T05:59:18.652Z,270
2017-05-10T05:59:59.629Z,275
2017-05-10T06:00:40.518Z,280
2017-05-10T06:01:21.466Z,285
2017-05-10T06:03:15.335Z,300
2017-05-10T06:03:56.290Z,305
2017-05-10T06:04:37.257Z,305
2017-05-10T06:05:18.154Z,320
2017-05-10T06:05:59.119Z,330
2017-05-10T06:06:40.047Z,335
2017-05-10T06:08:40.988Z,360
2017-05-10T06:09:21.963Z,355
2017-05-10T06:11:36.424Z,345
2017-05-10T06:12:17.355Z,345
2017-05-10T06:12:58.240Z,345
2017-05-10T06:13:39.118Z,345
2017-05-10T06:14:20.007Z,350
2017-05-10T06:15:00.910Z,360
2017-05-10T06:15:41.835Z,360
2017-05-10T06:16:22.706Z,355
2017-05-10T06:17:03.586Z,360
2017-05-10T06:17:44.472Z,350
2017-05-10T06:18:25.355Z,350
2017-05-10T06:19:06.275Z,345
2017-05-10T06:19:47.275Z,345
2017-05-10T06:20:28.230Z,350
2017-05-10T06:21:10.928Z,360
2017-05-10T06:21:51.819Z,355
2017-05-10T06:22:32.703Z,355
2017-05-10T06:23:13.591Z,355
2017-05-10T06:23:54.570Z,350
2017-05-10T06:24:35.472Z,350
2017-05-10T06:25:16.360Z,350
2017-05-10T06:25:57.262Z,350
2017-05-10T06:26:38.144Z,350
2017-05-10T06:27:19.044Z,345
2017-05-10T06:27:59.970Z,345
2017-05-10T06:29:53.574Z,350
2017-05-10T06:30:34.456Z,345
2017-05-10T06:31:15.331Z,345
2017-05-10T06:31:56.206Z,345
2017-05-10T06:32:37.088Z,350
2017-05-10T06:33:17.973Z,350
2017-05-10T06:33:58.856Z,350
2017-05-10T06:34:39.727Z,355
2017-05-10T06:35:20.601Z,365
2017-05-10T06:36:01.506Z,380
2017-05-10T06:36:42.388Z,395
2017-05-10T06:37:23.276Z,400
2017-05-10T06:38:04.157Z,400
2017-05-10T06:38:45.046Z,390
2017-05-10T06:39:25.942Z,350
2017-05-10T06:40:06.816Z,320
2017-05-10T06:40:47.704Z,325
2017-05-10T06:41:28.603Z,330
2017-05-10T06:42:09.479Z,350
2017-05-10T06:42:50.369Z,360
2017-05-10T06:43:31.251Z,335
2017-05-10T06:44:12.144Z,350
2017-05-10T06:44:53.029Z,365
2017-05-10T06:45:33.912Z,380
2017-05-10T06:46:14.811Z,375
2017-05-10T06:46:55.694Z,410
2017-05-10T06:47:36.609Z,455
2017-05-10T06:48:17.502Z,485
2017-05-10T06:48:58.403Z,435
2017-05-10T06:49:39.308Z,440
2017-05-10T06:50:20.188Z,445
2017-05-10T06:51:01.061Z,440
2017-05-10T06:51:41.942Z,465
2017-05-10T06:52:22.805Z,475
2017-05-10T06:53:03.669Z,455
2017-05-10T06:53:44.556Z,455
2017-05-10T06:54:25.532Z,460
2017-05-10T06:55:06.486Z,460
2017-05-10T06:55:47.379Z,435
2017-05-10T06:56:28.291Z,430
2017-05-10T06:57:09.170Z,425
2017-05-10T06:57:50.053Z,430
2017-05-10T06:58:30.942Z,425
2017-05-10T06:59:11.824Z,445
2017-05-10T06:59:52.711Z,465
2017-05-10T07:00:33.590Z,475
2017-05-10T07:01:14.474Z,470
2017-05-10T07:01:55.361Z,470
2017-05-10T07:02:36.241Z,510
2017-05-10T07:03:17.128Z,510
2017-05-10T07:03:58.034Z,535
2017-05-10T07:04:38.912Z,515
2017-05-10T07:05:19.791Z,495
2017-05-10T07:06:00.677Z,495
2017-05-10T07:06:41.549Z,475
2017-05-10T07:07:22.425Z,465
2017-05-10T07:08:03.304Z,440
2017-05-10T07:08:44.188Z,435
2017-05-10T07:09:25.077Z,410
2017-05-10T07:10:05.990Z,360
2017-05-10T07:10:46.877Z,315
2017-05-10T07:11:27.768Z,360
2017-05-10T07:12:08.657Z,385
2017-05-10T07:12:49.542Z,420
2017-05-10T07:13:30.430Z,400
2017-05-10T07:14:11.313Z,440
2017-05-10T07:14:52.200Z,400
2017-05-10T07:15:33.087Z,350
2017-05-10T07:16:13.975Z,290
2017-05-10T07:16:54.860Z,335
2017-05-10T07:17:35.744Z,390
2017-05-10T07:18:16.637Z,390
2017-05-10T07:18:57.524Z,325
2017-05-10T07:19:38.401Z,395
2017-05-10T07:20:19.293Z,425
2017-05-10T07:21:00.172Z,415
2017-05-10T07:21:41.060Z,335
2017-05-10T07:22:21.940Z,315
2017-05-10T07:23:02.810Z,315
2017-05-10T07:23:43.700Z,310
2017-05-10T07:24:24.594Z,310
2017-05-10T07:25:05.466Z,275
2017-05-10T07:25:46.354Z,275
2017-05-10T07:26:27.248Z,245
2017-05-10T07:27:08.136Z,225
2017-05-10T07:27:49.007Z,240
2017-05-10T07:28:29.903Z,295
2017-05-10T07:29:10.800Z,315
2017-05-10T07:29:51.685Z,295
2017-05-10T07:30:32.608Z,240
2017-05-10T07:31:13.482Z,190
2017-05-10T07:31:54.363Z,195
2017-05-10T07:32:35.292Z,225
2017-05-10T07:33:16.150Z,250
2017-05-10T07:33:57.046Z,335
2017-05-10T07:34:37.930Z,495
2017-05-10T07:35:18.822Z,410
2017-05-10T07:35:59.691Z,375
2017-05-10T07:36:40.580Z,285
2017-05-10T07:37:21.471Z,195
2017-05-10T07:38:02.365Z,190
2017-05-10T07:38:43.261Z,290
2017-05-10T07:39:24.154Z,435
2017-05-10T07:40:05.027Z,860
2017-05-10T07:40:45.909Z,880
2017-05-10T07:41:26.822Z,440
2017-05-10T07:42:07.693Z,365
2017-05-10T07:42:48.580Z,355
2017-05-10T07:43:29.469Z,325
2017-05-10T07:44:10.368Z,335
2017-05-10T07:44:51.289Z,440
2017-05-10T07:45:32.172Z,685
2017-05-10T07:46:13.057Z,690
2017-05-10T07:46:53.958Z,430
2017-05-10T07:47:34.842Z,425
2017-05-10T07:48:15.740Z,495
2017-05-10T07:48:56.620Z,1140
2017-05-10T07:49:37.504Z,1205
2017-05-10T07:50:18.389Z,875
2017-05-10T07:50:59.277Z,625
2017-05-10T07:51:40.166Z,710
2017-05-10T07:52:21.054Z,730
2017-05-10T07:53:01.943Z,855
2017-05-10T07:53:42.832Z,795
2017-05-10T07:54:23.748Z,1350
2017-05-10T07:55:04.636Z,925
2017-05-10T07:55:45.523Z,580
2017-05-10T07:56:26.413Z,960
2017-05-10T07:57:07.318Z,1085
2017-05-10T07:57:48.195Z,845
2017-05-10T07:58:29.101Z,330
2017-05-10T07:59:09.988Z,265
2017-05-10T07:59:50.879Z,230
2017-05-10T08:00:31.784Z,190
2017-05-10T08:01:12.670Z,165
2017-05-10T08:01:53.559Z,165
2017-05-10T08:02:34.454Z,210
2017-05-10T08:03:15.350Z,275
2017-05-10T08:03:56.247Z,265
2017-05-10T08:04:37.182Z,265
2017-05-10T08:05:18.078Z,280
2017-05-10T08:05:58.966Z,285
2017-05-10T08:06:39.841Z,280
2017-05-10T08:07:20.719Z,270
2017-05-10T08:08:01.603Z,720
2017-05-10T08:08:42.489Z,240
2017-05-10T08:09:23.379Z,230
2017-05-10T08:10:04.279Z,230
2017-05-10T08:10:45.174Z,260
2017-05-10T08:11:26.054Z,255
2017-05-10T08:12:06.949Z,220
2017-05-10T08:12:47.838Z,195
2017-05-10T08:13:28.724Z,180
2017-05-10T08:14:09.605Z,185
2017-05-10T08:14:50.505Z,185
2017-05-10T08:15:31.390Z,200
2017-05-10T08:16:12.275Z,210
2017-05-10T08:16:53.165Z,225
2017-05-10T08:17:34.049Z,220
2017-05-10T08:18:14.940Z,205
2017-05-10T08:18:55.833Z,210
2017-05-10T08:19:36.726Z,230
2017-05-10T08:20:17.611Z,255
2017-05-10T08:20:58.494Z,275
2017-05-10T08:21:39.389Z,275
2017-05-10T08:22:20.279Z,280
2017-05-10T08:23:01.151Z,280
2017-05-10T08:23:42.038Z,250
2017-05-10T08:24:22.928Z,205
2017-05-10T08:25:03.820Z,190
2017-05-10T08:25:44.714Z,190
2017-05-10T08:26:25.603Z,190
2017-05-10T08:27:06.484Z,200
2017-05-10T08:27:47.369Z,210
2017-05-10T08:28:28.257Z,225
2017-05-10T08:29:09.132Z,235
2017-05-10T08:29:50.021Z,245
2017-05-10T08:30:30.932Z,245
2017-05-10T08:31:11.824Z,240
2017-05-10T08:31:52.713Z,250
2017-05-10T08:32:33.589Z,255
2017-05-10T08:33:14.468Z,250
2017-05-10T08:33:55.350Z,245
2017-05-10T08:34:36.232Z,235
2017-05-10T08:35:17.123Z,240
2017-05-10T08:35:58.018Z,250
2017-05-10T08:36:38.899Z,240
2017-05-10T08:37:19.817Z,235
2017-05-10T08:38:00.701Z,225
2017-05-10T08:38:41.603Z,195
2017-05-10T08:40:56.198Z,200
2017-05-10T08:41:37.086Z,185
2017-05-10T08:42:17.966Z,175
2017-05-10T08:42:58.843Z,160
2017-05-10T08:43:39.739Z,160
2017-05-10T08:44:20.620Z,150
2017-05-10T08:45:01.489Z,150
2017-05-10T08:45:42.359Z,145
2017-05-10T08:46:23.238Z,150
2017-05-10T08:47:04.118Z,155
2017-05-10T08:47:45.006Z,160
2017-05-10T08:48:25.880Z,170
2017-05-10T08:49:06.757Z,195
2017-05-10T08:49:47.640Z,220
2017-05-10T08:50:28.520Z,240
2017-05-10T08:51:09.397Z,245
2017-05-10T08:51:50.261Z,220
2017-05-10T08:52:31.121Z,190
2017-05-10T08:53:12.006Z,175
2017-05-10T08:53:52.893Z,180
2017-05-10T08:54:33.790Z,185
2017-05-10T08:55:14.724Z,175
2017-05-10T08:55:55.613Z,170
2017-05-10T08:56:36.533Z,160
2017-05-10T08:57:17.434Z,145
2017-05-10T08:57:58.294Z,130
2017-05-10T08:58:39.162Z,125
2017-05-10T08:59:20.039Z,140
2017-05-10T09:00:00.925Z,155
2017-05-10T09:00:41.807Z,170
2017-05-10T09:01:22.689Z,165
2017-05-10T09:02:03.557Z,165
2017-05-10T09:02:44.497Z,180
2017-05-10T09:03:25.363Z,195
2017-05-10T09:04:06.246Z,200
2017-05-10T09:04:47.135Z,205
2017-05-10T09:05:28.017Z,195
2017-05-10T09:06:08.902Z,175
2017-05-10T09:06:49.792Z,155
2017-05-10T09:07:30.683Z,150
2017-05-10T09:08:11.569Z,150
2017-05-10T09:08:52.452Z,160
2017-05-10T09:09:33.335Z,185
2017-05-10T09:10:14.213Z,215
2017-05-10T09:10:55.095Z,260
2017-05-10T09:11:35.978Z,320
2017-05-10T09:12:16.861Z,355
2017-05-10T09:12:57.749Z,365
2017-05-10T09:13:38.642Z,365
2017-05-10T09:14:19.505Z,345
2017-05-10T09:15:00.387Z,305
2017-05-10T09:15:41.294Z,260
2017-05-10T09:16:22.166Z,230
2017-05-10T09:17:03.044Z,230
2017-05-10T09:17:43.943Z,245
2017-05-10T09:18:24.826Z,260
2017-05-10T09:19:05.705Z,235
2017-05-10T09:19:46.601Z,230
2017-05-10T09:20:27.510Z,250
2017-05-10T09:21:08.359Z,250
2017-05-10T09:21:49.245Z,270
2017-05-10T09:22:30.126Z,295
2017-05-10T09:23:11.021Z,315
2017-05-10T09:23:51.916Z,310
2017-05-10T09:24:32.803Z,305
2017-05-10T09:25:13.711Z,330
2017-05-10T09:25:54.604Z,370
2017-05-10T09:26:35.479Z,425
2017-05-10T09:27:16.386Z,620
2017-05-10T09:27:57.270Z,430
2017-05-10T09:28:38.168Z,420
2017-05-10T09:29:19.064Z,375
2017-05-10T09:29:59.948Z,350
2017-05-10T09:30:40.834Z,345
2017-05-10T09:31:21.726Z,330
2017-05-10T09:32:02.653Z,355
2017-05-10T09:32:43.514Z,425
2017-05-10T09:33:24.391Z,515
2017-05-10T09:34:05.279Z,560
2017-05-10T09:34:46.152Z,630
2017-05-10T09:35:27.027Z,880
2017-05-10T09:36:07.919Z,1055
2017-05-10T09:36:48.811Z,700
2017-05-10T09:37:29.692Z,635
2017-05-10T09:38:10.560Z,535
2017-05-10T09:38:51.446Z,460
2017-05-10T09:39:32.339Z,445
2017-05-10T09:40:13.222Z,420
2017-05-10T09:40:54.115Z,420
2017-05-10T09:41:35.001Z,425
2017-05-10T09:42:15.892Z,395
2017-05-10T09:42:56.770Z,350
2017-05-10T09:43:37.660Z,300
2017-05-10T09:44:18.562Z,285
2017-05-10T09:44:59.442Z,270
2017-05-10T09:45:40.331Z,265
2017-05-10T09:46:21.216Z,275
2017-05-10T09:47:02.099Z,310
2017-05-10T09:47:42.983Z,360
2017-05-10T09:48:23.869Z,425
2017-05-10T09:49:04.760Z,1525
2017-05-10T09:49:45.652Z,535